sensor_id;sensor_type;location;lat;lon;timestamp;pressure;altitude;pressure_sealevel;temperature;humidity
28628;BME280;15815;46.760;19.604;2022-12-29T00:00:36;101032.84;;;0.34;93.71
28628;BME280;15815;46.760;19.604;2022-12-29T00:03:02;101028.94;;;0.35;94.19
28628;BME280;15815;46.760;19.604;2022-12-29T00:05:27;101041.19;;;0.43;94.27
28628;BME280;15815;46.760;19.604;2022-12-29T00:07:53;101030.56;;;0.36;93.87
28628;BME280;15815;46.760;19.604;2022-12-29T00:10:18;100996.84;;;0.25;94.30
28628;BME280;15815;46.760;19.604;2022-12-29T00:12:44;101010.72;;;0.34;94.00
28628;BME280;15815;46.760;19.604;2022-12-29T00:15:09;101021.81;;;0.43;94.00
28628;BME280;15815;46.760;19.604;2022-12-29T00:17:35;101018.88;;;0.39;94.06
28628;BME280;15815;46.760;19.604;2022-12-29T00:20:00;101017.41;;;0.42;93.93
28628;BME280;15815;46.760;19.604;2022-12-29T00:22:27;101021.31;;;0.41;93.66
28628;BME280;15815;46.760;19.604;2022-12-29T00:24:52;101014.81;;;0.37;93.93
28628;BME280;15815;46.760;19.604;2022-12-29T00:27:18;101020.66;;;0.35;93.10
28628;BME280;15815;46.760;19.604;2022-12-29T00:29:47;101005.94;;;0.26;93.63
28628;BME280;15815;46.760;19.604;2022-12-29T00:32:12;101006.28;;;0.24;93.46
28628;BME280;15815;46.760;19.604;2022-12-29T00:34:40;101012.69;;;0.34;93.21
28628;BME280;15815;46.760;19.604;2022-12-29T00:37:06;100998.47;;;0.26;92.83
28628;BME280;15815;46.760;19.604;2022-12-29T00:39:31;101012.69;;;0.34;93.44
28628;BME280;15815;46.760;19.604;2022-12-29T00:42:05;101019.84;;;0.35;93.07
28628;BME280;15815;46.760;19.604;2022-12-29T00:44:32;101015.28;;;0.30;93.05
28628;BME280;15815;46.760;19.604;2022-12-29T00:46:57;101026.50;;;0.34;93.12
28628;BME280;15815;46.760;19.604;2022-12-29T00:49:23;101026.19;;;0.35;92.99
28628;BME280;15815;46.760;19.604;2022-12-29T00:51:49;101037.25;;;0.35;92.74
28628;BME280;15815;46.760;19.604;2022-12-29T00:54:15;101038.56;;;0.38;92.72
28628;BME280;15815;46.760;19.604;2022-12-29T00:56:42;101004.16;;;0.21;92.71
28628;BME280;15815;46.760;19.604;2022-12-29T00:59:10;101021.41;;;0.27;92.85
28628;BME280;15815;46.760;19.604;2022-12-29T01:01:37;101031.53;;;0.32;92.74
28628;BME280;15815;46.760;19.604;2022-12-29T01:04:07;101015.53;;;0.20;92.72
28628;BME280;15815;46.760;19.604;2022-12-29T01:06:34;101025.31;;;0.26;92.93
28628;BME280;15815;46.760;19.604;2022-12-29T01:09:01;101008.38;;;0.19;93.10
28628;BME280;15815;46.760;19.604;2022-12-29T01:11:26;101029.91;;;0.30;93.14
28628;BME280;15815;46.760;19.604;2022-12-29T01:13:52;101009.03;;;0.24;92.69
28628;BME280;15815;46.760;19.604;2022-12-29T01:16:19;101022.09;;;0.33;92.55
28628;BME280;15815;46.760;19.604;2022-12-29T01:18:45;101005.47;;;0.24;92.95
28628;BME280;15815;46.760;19.604;2022-12-29T01:21:10;101023.25;;;0.32;93.35
28628;BME280;15815;46.760;19.604;2022-12-29T01:23:36;101006.28;;;0.24;93.03
28628;BME280;15815;46.760;19.604;2022-12-29T01:26:11;101026.50;;;0.34;92.50
28628;BME280;15815;46.760;19.604;2022-12-29T01:28:37;101031.66;;;0.26;92.31
28628;BME280;15815;46.760;19.604;2022-12-29T01:31:03;101005.09;;;0.17;92.44
28628;BME280;15815;46.760;19.604;2022-12-29T01:33:28;101026.44;;;0.25;91.97
28628;BME280;15815;46.760;19.604;2022-12-29T01:35:54;101021.06;;;0.20;92.26
28628;BME280;15815;46.760;19.604;2022-12-29T01:38:19;100992.38;;;0.07;92.57
28628;BME280;15815;46.760;19.604;2022-12-29T01:40:47;100991.88;;;0.05;92.61
28628;BME280;15815;46.760;19.604;2022-12-29T01:43:13;101004.28;;;0.16;92.47
28628;BME280;15815;46.760;19.604;2022-12-29T01:45:43;101002.16;;;0.13;92.92
28628;BME280;15815;46.760;19.604;2022-12-29T01:48:11;101000.22;;;0.14;92.99
28628;BME280;15815;46.760;19.604;2022-12-29T01:50:44;101004.13;;;0.13;93.06
28628;BME280;15815;46.760;19.604;2022-12-29T01:53:28;101007.38;;;0.15;93.13
28628;BME280;15815;46.760;19.604;2022-12-29T01:55:59;101003.78;;;0.14;93.09
28628;BME280;15815;46.760;19.604;2022-12-29T01:58:30;101005.44;;;0.15;93.33
28628;BME280;15815;46.760;19.604;2022-12-29T02:00:57;101000.84;;;0.11;93.08
28628;BME280;15815;46.760;19.604;2022-12-29T02:03:28;100965.31;;;-0.05;93.13
28628;BME280;15815;46.760;19.604;2022-12-29T02:08:32;100967.34;;;0.04;92.65
28628;BME280;15815;46.760;19.604;2022-12-29T02:11:01;100956.53;;;-0.07;92.87
28628;BME280;15815;46.760;19.604;2022-12-29T02:13:27;100987.03;;;0.11;93.18
28628;BME280;15815;46.760;19.604;2022-12-29T02:18:41;100979.06;;;0.09;93.51
28628;BME280;15815;46.760;19.604;2022-12-29T02:38:00;100964.44;;;0.09;93.00
28628;BME280;15815;46.760;19.604;2022-12-29T02:40:36;100951.56;;;0.04;92.80
28628;BME280;15815;46.760;19.604;2022-12-29T02:46:03;100953.19;;;0.05;92.95
28628;BME280;15815;46.760;19.604;2022-12-29T02:48:32;100947.97;;;0.04;92.71
28628;BME280;15815;46.760;19.604;2022-12-29T02:51:21;100946.69;;;0.01;92.79
28628;BME280;15815;46.760;19.604;2022-12-29T02:53:57;100948.75;;;-0.05;93.24
28628;BME280;15815;46.760;19.604;2022-12-29T02:56:23;100956.09;;;0.00;92.99
28628;BME280;15815;46.760;19.604;2022-12-29T02:58:49;100945.47;;;-0.07;93.16
28628;BME280;15815;46.760;19.604;2022-12-29T03:15:12;100958.47;;;-0.07;92.62
28628;BME280;15815;46.760;19.604;2022-12-29T03:18:19;100965.00;;;-0.03;92.59
28628;BME280;15815;46.760;19.604;2022-12-29T03:20:43;100958.66;;;-0.04;92.19
28628;BME280;15815;46.760;19.604;2022-12-29T03:23:13;100924.44;;;-0.25;92.37
28628;BME280;15815;46.760;19.604;2022-12-29T03:25:48;100950.34;;;-0.12;92.36
28628;BME280;15815;46.760;19.604;2022-12-29T03:28:21;100947.41;;;-0.16;91.96
28628;BME280;15815;46.760;19.604;2022-12-29T03:30:50;100953.75;;;-0.15;92.35
28628;BME280;15815;46.760;19.604;2022-12-29T03:33:20;100933.06;;;-0.26;92.41
28628;BME280;15815;46.760;19.604;2022-12-29T03:35:48;100953.56;;;-0.19;91.23
28628;BME280;15815;46.760;19.604;2022-12-29T03:38:33;100949.00;;;-0.23;91.46
28628;BME280;15815;46.760;19.604;2022-12-29T03:41:09;100949.56;;;-0.35;90.93
28628;BME280;15815;46.760;19.604;2022-12-29T03:43:37;100937.81;;;-0.41;91.37
28628;BME280;15815;46.760;19.604;2022-12-29T03:46:02;100947.75;;;-0.40;91.75
28628;BME280;15815;46.760;19.604;2022-12-29T03:48:28;100932.41;;;-0.54;92.21
28628;BME280;15815;46.760;19.604;2022-12-29T03:50:54;100937.28;;;-0.51;91.18
28628;BME280;15815;46.760;19.604;2022-12-29T03:53:19;100939.34;;;-0.57;91.78
28628;BME280;15815;46.760;19.604;2022-12-29T03:55:48;100927.44;;;-0.66;92.09
28628;BME280;15815;46.760;19.604;2022-12-29T03:58:17;100918.66;;;-0.68;92.44
28628;BME280;15815;46.760;19.604;2022-12-29T04:00:43;100928.75;;;-0.64;92.79
28628;BME280;15815;46.760;19.604;2022-12-29T04:03:09;100917.00;;;-0.69;92.48
28628;BME280;15815;46.760;19.604;2022-12-29T04:05:34;100933.75;;;-0.66;92.74
28628;BME280;15815;46.760;19.604;2022-12-29T04:08:00;100926.44;;;-0.70;93.30
28628;BME280;15815;46.760;19.604;2022-12-29T04:10:26;100922.53;;;-0.69;93.46
28628;BME280;15815;46.760;19.604;2022-12-29T04:12:51;100915.13;;;-0.82;93.62
28628;BME280;15815;46.760;19.604;2022-12-29T04:15:18;100909.00;;;-0.79;93.65
28628;BME280;15815;46.760;19.604;2022-12-29T04:17:43;100907.22;;;-0.75;93.63
28628;BME280;15815;46.760;19.604;2022-12-29T04:20:10;100919.78;;;-0.69;94.14
28628;BME280;15815;46.760;19.604;2022-12-29T04:22:36;100918.47;;;-0.72;93.82
28628;BME280;15815;46.760;19.604;2022-12-29T04:25:01;100931.69;;;-0.60;93.84
28628;BME280;15815;46.760;19.604;2022-12-29T04:27:27;100928.75;;;-0.64;93.33
28628;BME280;15815;46.760;19.604;2022-12-29T04:29:52;100929.06;;;-0.65;93.90
28628;BME280;15815;46.760;19.604;2022-12-29T04:32:18;100930.19;;;-0.66;93.35
28628;BME280;15815;46.760;19.604;2022-12-29T04:34:43;100928.88;;;-0.69;93.56
28628;BME280;15815;46.760;19.604;2022-12-29T04:37:09;100935.84;;;-0.71;94.39
28628;BME280;15815;46.760;19.604;2022-12-29T04:39:34;100940.72;;;-0.68;94.19
28628;BME280;15815;46.760;19.604;2022-12-29T04:42:00;100928.69;;;-0.72;94.13
28628;BME280;15815;46.760;19.604;2022-12-29T04:44:26;100940.53;;;-0.72;94.07
28628;BME280;15815;46.760;19.604;2022-12-29T04:46:51;100925.34;;;-0.83;94.53
28628;BME280;15815;46.760;19.604;2022-12-29T04:49:17;100940.88;;;-0.73;94.35
28628;BME280;15815;46.760;19.604;2022-12-29T04:51:43;100949.16;;;-0.73;94.11
28628;BME280;15815;46.760;19.604;2022-12-29T04:54:08;100936.91;;;-0.81;94.27
28628;BME280;15815;46.760;19.604;2022-12-29T04:56:37;100939.53;;;-0.76;93.92
28628;BME280;15815;46.760;19.604;2022-12-29T04:59:02;100938.22;;;-0.78;93.76
28628;BME280;15815;46.760;19.604;2022-12-29T05:01:28;100940.09;;;-0.87;94.17
28628;BME280;15815;46.760;19.604;2022-12-29T05:03:54;100940.59;;;-0.85;94.20
28628;BME280;15815;46.760;19.604;2022-12-29T05:06:19;100945.56;;;-0.74;94.31
28628;BME280;15815;46.760;19.604;2022-12-29T05:08:45;100932.63;;;-0.87;94.15
28628;BME280;15815;46.760;19.604;2022-12-29T05:11:10;100937.72;;;-0.80;94.15
28628;BME280;15815;46.760;19.604;2022-12-29T05:13:36;100928.56;;;-0.89;94.78
28628;BME280;15815;46.760;19.604;2022-12-29T05:16:02;100941.09;;;-0.83;94.26
28628;BME280;15815;46.760;19.604;2022-12-29T05:18:28;100918.91;;;-1.01;94.31
28628;BME280;15815;46.760;19.604;2022-12-29T05:20:53;100948.88;;;-0.85;94.46
28628;BME280;15815;46.760;19.604;2022-12-29T05:23:19;100946.44;;;-0.87;93.98
28628;BME280;15815;46.760;19.604;2022-12-29T05:25:46;100945.09;;;-0.89;94.65
28628;BME280;15815;46.760;19.604;2022-12-29T05:28:12;100947.88;;;-0.89;94.31
28628;BME280;15815;46.760;19.604;2022-12-29T05:30:38;100931.25;;;-0.98;94.41
28628;BME280;15815;46.760;19.604;2022-12-29T05:33:04;100931.25;;;-0.98;93.63
28628;BME280;15815;46.760;19.604;2022-12-29T05:35:29;100929.44;;;-1.03;94.15
28628;BME280;15815;46.760;19.604;2022-12-29T05:37:55;100937.00;;;-1.08;94.26
28628;BME280;15815;46.760;19.604;2022-12-29T05:40:22;100945.97;;;-1.03;94.49
28628;BME280;15815;46.760;19.604;2022-12-29T05:42:47;100950.88;;;-1.00;94.74
28628;BME280;15815;46.760;19.604;2022-12-29T05:45:16;100926.56;;;-1.11;94.98
28628;BME280;15815;46.760;19.604;2022-12-29T05:47:42;100941.59;;;-1.04;94.77
28628;BME280;15815;46.760;19.604;2022-12-29T05:50:08;100935.06;;;-1.08;95.34
28628;BME280;15815;46.760;19.604;2022-12-29T05:52:33;100906.81;;;-1.27;95.64
28628;BME280;15815;46.760;19.604;2022-12-29T05:54:59;100923.81;;;-1.11;96.08
28628;BME280;15815;46.760;19.604;2022-12-29T05:57:24;100918.63;;;-1.13;96.00
28628;BME280;15815;46.760;19.604;2022-12-29T05:59:53;100914.53;;;-1.15;96.50
28628;BME280;15815;46.760;19.604;2022-12-29T06:02:18;100909.84;;;-1.15;96.33
28628;BME280;15815;46.760;19.604;2022-12-29T06:04:43;100906.25;;;-1.15;96.60
28628;BME280;15815;46.760;19.604;2022-12-29T06:07:09;100902.88;;;-1.12;96.51
28628;BME280;15815;46.760;19.604;2022-12-29T06:09:34;100907.34;;;-1.03;96.60
28628;BME280;15815;46.760;19.604;2022-12-29T06:12:00;100904.72;;;-1.08;96.46
28628;BME280;15815;46.760;19.604;2022-12-29T06:14:26;100908.81;;;-1.05;96.91
28628;BME280;15815;46.760;19.604;2022-12-29T06:16:51;100920.91;;;-0.93;96.98
28628;BME280;15815;46.760;19.604;2022-12-29T06:19:18;100916.13;;;-1.01;96.57
28628;BME280;15815;46.760;19.604;2022-12-29T06:21:43;100902.84;;;-0.99;97.33
28628;BME280;15815;46.760;19.604;2022-12-29T06:24:10;100895.75;;;-0.91;97.22
28628;BME280;15815;46.760;19.604;2022-12-29T06:26:36;100905.84;;;-0.86;96.91
28628;BME280;15815;46.760;19.604;2022-12-29T06:29:02;100879.88;;;-0.85;96.71
28628;BME280;15815;46.760;19.604;2022-12-29T06:31:28;100906.25;;;-0.79;97.17
28628;BME280;15815;46.760;19.604;2022-12-29T06:33:54;100903.16;;;-0.78;96.93
28628;BME280;15815;46.760;19.604;2022-12-29T06:36:19;100902.53;;;-0.75;97.54
28628;BME280;15815;46.760;19.604;2022-12-29T06:38:45;100907.09;;;-0.70;97.21
28628;BME280;15815;46.760;19.604;2022-12-29T06:41:11;100900.94;;;-0.67;96.61
28628;BME280;15815;46.760;19.604;2022-12-29T06:43:37;100900.94;;;-0.67;96.95
28628;BME280;15815;46.760;19.604;2022-12-29T06:46:04;100916.00;;;-0.51;96.00
28628;BME280;15815;46.760;19.604;2022-12-29T06:48:29;100914.38;;;-0.52;96.10
28628;BME280;15815;46.760;19.604;2022-12-29T06:50:55;100913.25;;;-0.51;96.25
28628;BME280;15815;46.760;19.604;2022-12-29T06:53:21;100919.13;;;-0.44;95.98
28628;BME280;15815;46.760;19.604;2022-12-29T06:55:46;100921.13;;;-0.36;95.95
28628;BME280;15815;46.760;19.604;2022-12-29T06:58:12;100910.41;;;-0.28;95.24
28628;BME280;15815;46.760;19.604;2022-12-29T07:00:38;100913.44;;;-0.16;94.82
28628;BME280;15815;46.760;19.604;2022-12-29T07:03:04;100911.19;;;-0.06;94.52
28628;BME280;15815;46.760;19.604;2022-12-29T07:05:30;100914.19;;;0.15;94.24
28628;BME280;15815;46.760;19.604;2022-12-29T07:07:55;100911.34;;;0.38;92.81
28628;BME280;15815;46.760;19.604;2022-12-29T07:10:22;100915.66;;;0.87;91.44
28628;BME280;15815;46.760;19.604;2022-12-29T07:12:48;100889.91;;;1.21;89.91
28628;BME280;15815;46.760;19.604;2022-12-29T07:15:14;100913.88;;;1.81;88.16
28628;BME280;15815;46.760;19.604;2022-12-29T07:17:40;100900.41;;;2.09;86.41
28628;BME280;15815;46.760;19.604;2022-12-29T07:20:06;100883.34;;;2.28;83.60
28628;BME280;15815;46.760;19.604;2022-12-29T07:22:32;100881.66;;;2.86;82.44
28628;BME280;15815;46.760;19.604;2022-12-29T07:24:59;100899.97;;;3.40;80.48
28628;BME280;15815;46.760;19.604;2022-12-29T07:27:24;100900.97;;;3.69;79.55
28628;BME280;15815;46.760;19.604;2022-12-29T07:29:50;100910.16;;;4.06;77.62
28628;BME280;15815;46.760;19.604;2022-12-29T07:32:15;100890.34;;;4.32;76.67
28628;BME280;15815;46.760;19.604;2022-12-29T07:34:41;100909.00;;;4.80;76.08
28628;BME280;15815;46.760;19.604;2022-12-29T07:37:07;100910.00;;;5.00;73.39
28628;BME280;15815;46.760;19.604;2022-12-29T07:39:32;100916.66;;;5.23;72.79
28628;BME280;15815;46.760;19.604;2022-12-29T07:41:58;100913.16;;;5.54;71.34
28628;BME280;15815;46.760;19.604;2022-12-29T07:44:23;100903.22;;;5.85;70.89
28628;BME280;15815;46.760;19.604;2022-12-29T07:46:49;100901.19;;;5.98;68.87
28628;BME280;15815;46.760;19.604;2022-12-29T07:49:14;100888.13;;;6.17;68.54
28628;BME280;15815;46.760;19.604;2022-12-29T07:51:40;100906.91;;;6.52;68.21
28628;BME280;15815;46.760;19.604;2022-12-29T07:54:05;100907.22;;;6.82;66.90
28628;BME280;15815;46.760;19.604;2022-12-29T07:56:31;100902.06;;;6.84;67.40
28628;BME280;15815;46.760;19.604;2022-12-29T07:58:56;100881.13;;;6.94;66.55
28628;BME280;15815;46.760;19.604;2022-12-29T08:01:22;100899.44;;;7.10;65.37
28628;BME280;15815;46.760;19.604;2022-12-29T08:03:47;100896.66;;;7.30;65.11
28628;BME280;15815;46.760;19.604;2022-12-29T08:06:13;100888.94;;;7.42;64.60
28628;BME280;15815;46.760;19.604;2022-12-29T08:08:38;100888.63;;;7.90;63.36
28628;BME280;15815;46.760;19.604;2022-12-29T08:11:04;100881.25;;;8.01;61.74
28628;BME280;15815;46.760;19.604;2022-12-29T08:13:30;100886.28;;;8.38;61.33
28628;BME280;15815;46.760;19.604;2022-12-29T08:15:57;100873.31;;;8.29;61.61
28628;BME280;15815;46.760;19.604;2022-12-29T08:18:23;100877.44;;;8.62;60.71
28628;BME280;15815;46.760;19.604;2022-12-29T08:20:48;100887.13;;;8.94;59.92
28628;BME280;15815;46.760;19.604;2022-12-29T08:23:14;100879.75;;;8.83;59.76
28628;BME280;15815;46.760;19.604;2022-12-29T08:25:40;100875.66;;;9.37;58.82
28628;BME280;15815;46.760;19.604;2022-12-29T08:28:05;100871.25;;;9.06;59.45
28628;BME280;15815;46.760;19.604;2022-12-29T08:30:31;100884.44;;;8.49;61.24
28628;BME280;15815;46.760;19.604;2022-12-29T08:32:56;100889.69;;;8.27;61.37
28628;BME280;15815;46.760;19.604;2022-12-29T08:35:22;100878.28;;;7.94;62.77
28628;BME280;15815;46.760;19.604;2022-12-29T08:37:50;100861.41;;;7.44;63.65
28628;BME280;15815;46.760;19.604;2022-12-29T08:40:15;100857.28;;;8.79;61.82
28628;BME280;15815;46.760;19.604;2022-12-29T08:42:41;100862.72;;;8.68;61.90
28628;BME280;15815;46.760;19.604;2022-12-29T08:45:07;100878.63;;;8.34;62.91
28628;BME280;15815;46.760;19.604;2022-12-29T08:47:33;100879.88;;;8.93;61.54
28628;BME280;15815;46.760;19.604;2022-12-29T08:49:58;100895.09;;;8.40;62.21
28628;BME280;15815;46.760;19.604;2022-12-29T08:52:24;100877.47;;;7.93;63.57
28628;BME280;15815;46.760;19.604;2022-12-29T08:54:49;100888.25;;;7.91;63.91
28628;BME280;15815;46.760;19.604;2022-12-29T08:57:15;100903.69;;;7.82;64.75
28628;BME280;15815;46.760;19.604;2022-12-29T08:59:40;100874.97;;;7.65;65.29
28628;BME280;15815;46.760;19.604;2022-12-29T09:02:10;100906.50;;;8.77;63.47
28628;BME280;15815;46.760;19.604;2022-12-29T09:04:56;100900.00;;;10.03;59.92
28628;BME280;15815;46.760;19.604;2022-12-29T09:07:21;100899.78;;;10.70;59.46
28628;BME280;15815;46.760;19.604;2022-12-29T09:09:47;100876.34;;;11.21;57.76
28628;BME280;15815;46.760;19.604;2022-12-29T09:12:12;100882.88;;;11.39;56.77
28628;BME280;15815;46.760;19.604;2022-12-29T09:14:38;100896.63;;;11.73;56.59
28628;BME280;15815;46.760;19.604;2022-12-29T09:17:03;100883.03;;;12.03;54.91
28628;BME280;15815;46.760;19.604;2022-12-29T09:19:30;100885.47;;;12.62;53.80
28628;BME280;15815;46.760;19.604;2022-12-29T09:21:55;100911.97;;;13.07;52.60
28628;BME280;15815;46.760;19.604;2022-12-29T09:24:21;100888.94;;;13.34;52.88
28628;BME280;15815;46.760;19.604;2022-12-29T09:26:54;100879.00;;;12.76;52.83
28628;BME280;15815;46.760;19.604;2022-12-29T09:29:20;100889.16;;;13.75;53.04
28628;BME280;15815;46.760;19.604;2022-12-29T09:31:49;100888.72;;;14.35;52.17
28628;BME280;15815;46.760;19.604;2022-12-29T09:34:15;100860.31;;;14.49;49.56
28628;BME280;15815;46.760;19.604;2022-12-29T09:36:41;100871.78;;;14.76;50.43
28628;BME280;15815;46.760;19.604;2022-12-29T09:39:07;100884.47;;;15.33;51.16
28628;BME280;15815;46.760;19.604;2022-12-29T09:42:27;100883.63;;;15.39;47.55
28628;BME280;15815;46.760;19.604;2022-12-29T09:44:50;100879.03;;;15.49;46.95
28628;BME280;15815;46.760;19.604;2022-12-29T09:47:17;100861.19;;;15.83;49.93
28628;BME280;15815;46.760;19.604;2022-12-29T09:52:14;100861.09;;;15.90;47.96
28628;BME280;15815;46.760;19.604;2022-12-29T10:02:54;100851.25;;;13.65;49.80
28628;BME280;15815;46.760;19.604;2022-12-29T10:08:12;100844.38;;;12.54;53.46
28628;BME280;15815;46.760;19.604;2022-12-29T10:16:09;100824.06;;;11.13;57.09
28628;BME280;15815;46.760;19.604;2022-12-29T10:18:48;100824.34;;;10.87;58.22
28628;BME280;15815;46.760;19.604;2022-12-29T10:21:29;100822.22;;;10.66;59.07
28628;BME280;15815;46.760;19.604;2022-12-29T10:23:59;100811.69;;;10.45;59.31
28628;BME280;15815;46.760;19.604;2022-12-29T10:26:40;100829.34;;;10.45;59.74
28628;BME280;15815;46.760;19.604;2022-12-29T10:29:16;100819.53;;;10.21;60.51
28628;BME280;15815;46.760;19.604;2022-12-29T10:32:04;100793.94;;;9.86;61.66
28628;BME280;15815;46.760;19.604;2022-12-29T10:34:41;100794.22;;;9.70;62.62
28628;BME280;15815;46.760;19.604;2022-12-29T10:39:52;100808.56;;;9.62;62.86
28628;BME280;15815;46.760;19.604;2022-12-29T10:42:25;100823.09;;;9.71;62.71
28628;BME280;15815;46.760;19.604;2022-12-29T10:44:52;100791.97;;;9.46;63.47
28628;BME280;15815;46.760;19.604;2022-12-29T10:47:23;100808.00;;;9.45;63.36
28628;BME280;15815;46.760;19.604;2022-12-29T10:49:50;100806.69;;;9.36;64.19
28628;BME280;15815;46.760;19.604;2022-12-29T10:52:17;100806.69;;;9.36;64.81
28628;BME280;15815;46.760;19.604;2022-12-29T10:55:08;100794.97;;;9.26;65.15
28628;BME280;15815;46.760;19.604;2022-12-29T10:57:41;100796.97;;;9.26;65.35
28628;BME280;15815;46.760;19.604;2022-12-29T11:00:11;100783.47;;;9.39;65.25
28628;BME280;15815;46.760;19.604;2022-12-29T11:05:49;100795.50;;;9.39;65.91
28628;BME280;15815;46.760;19.604;2022-12-29T11:08:20;100781.03;;;9.34;65.10
28628;BME280;15815;46.760;19.604;2022-12-29T11:10:57;100788.66;;;9.33;65.89
28628;BME280;15815;46.760;19.604;2022-12-29T11:13:34;100803.78;;;9.28;65.24
28628;BME280;15815;46.760;19.604;2022-12-29T11:16:00;100781.06;;;9.04;66.16
28628;BME280;15815;46.760;19.604;2022-12-29T11:18:32;100769.28;;;8.87;66.43
28628;BME280;15815;46.760;19.604;2022-12-29T11:21:04;100780.41;;;8.80;67.06
28628;BME280;15815;46.760;19.604;2022-12-29T11:26:25;100778.72;;;8.76;68.12
28628;BME280;15815;46.760;19.604;2022-12-29T11:29:20;100771.13;;;8.76;68.12
28628;BME280;15815;46.760;19.604;2022-12-29T11:31:50;100749.31;;;8.59;68.12
28628;BME280;15815;46.760;19.604;2022-12-29T11:34:25;100767.44;;;8.68;69.01
28628;BME280;15815;46.760;19.604;2022-12-29T11:36:53;100765.44;;;8.69;68.70
28628;BME280;15815;46.760;19.604;2022-12-29T11:41:53;100730.50;;;8.59;69.73
28628;BME280;15815;46.760;19.604;2022-12-29T11:44:20;100739.41;;;8.68;69.45
28628;BME280;15815;46.760;19.604;2022-12-29T11:46:48;100733.78;;;8.65;69.74
28628;BME280;15815;46.760;19.604;2022-12-29T11:49:23;100714.31;;;8.46;70.08
28628;BME280;15815;46.760;19.604;2022-12-29T11:51:51;100735.25;;;8.55;70.52
28628;BME280;15815;46.760;19.604;2022-12-29T11:54:33;100750.53;;;8.61;70.46
28628;BME280;15815;46.760;19.604;2022-12-29T11:57:14;100723.94;;;8.48;70.93
28628;BME280;15815;46.760;19.604;2022-12-29T11:59:43;100734.41;;;8.51;71.41
28628;BME280;15815;46.760;19.604;2022-12-29T12:04:42;100732.91;;;8.61;70.96
28628;BME280;15815;46.760;19.604;2022-12-29T12:07:13;100737.75;;;8.64;71.56
28628;BME280;15815;46.760;19.604;2022-12-29T12:09:43;100729.22;;;8.53;71.49
28628;BME280;15815;46.760;19.604;2022-12-29T12:12:27;100712.59;;;8.38;71.74
28628;BME280;15815;46.760;19.604;2022-12-29T12:14:57;100717.88;;;8.43;72.56
28628;BME280;15815;46.760;19.604;2022-12-29T12:17:28;100715.09;;;8.46;72.79
28628;BME280;15815;46.760;19.604;2022-12-29T12:25:13;100711.94;;;8.48;73.59
28628;BME280;15815;46.760;19.604;2022-12-29T12:27:50;100697.84;;;8.41;73.36
28628;BME280;15815;46.760;19.604;2022-12-29T12:30:19;100719.91;;;8.46;73.64
28628;BME280;15815;46.760;19.604;2022-12-29T12:32:58;100687.69;;;8.32;74.31
28628;BME280;15815;46.760;19.604;2022-12-29T12:41:09;100691.91;;;8.46;74.16
28628;BME280;15815;46.760;19.604;2022-12-29T12:43:39;100688.78;;;8.51;74.00
28628;BME280;15815;46.760;19.604;2022-12-29T12:49:03;100689.63;;;8.55;74.23
28628;BME280;15815;46.760;19.604;2022-12-29T12:52:13;100695.19;;;8.51;74.70
28628;BME280;15815;46.760;19.604;2022-12-29T12:55:02;100689.28;;;8.60;73.95
28628;BME280;15815;46.760;19.604;2022-12-29T12:57:47;100697.69;;;8.60;73.52
28628;BME280;15815;46.760;19.604;2022-12-29T13:00:17;100678.25;;;8.44;73.60
28628;BME280;15815;46.760;19.604;2022-12-29T13:14:00;100711.84;;;8.74;73.33
28628;BME280;15815;46.760;19.604;2022-12-29T13:16:41;100714.66;;;8.74;72.97
28628;BME280;15815;46.760;19.604;2022-12-29T13:21:54;100706.84;;;8.57;74.05
28628;BME280;15815;46.760;19.604;2022-12-29T13:24:25;100718.25;;;8.75;73.29
28628;BME280;15815;46.760;19.604;2022-12-29T13:27:30;100673.69;;;8.62;73.53
28628;BME280;15815;46.760;19.604;2022-12-29T13:41:06;100677.47;;;8.44;74.98
28628;BME280;15815;46.760;19.604;2022-12-29T13:43:35;100683.50;;;8.46;75.78
28628;BME280;15815;46.760;19.604;2022-12-29T13:46:08;100675.78;;;8.35;76.36
28628;BME280;15815;46.760;19.604;2022-12-29T13:48:52;100663.69;;;8.31;76.12
28628;BME280;15815;46.760;19.604;2022-12-29T13:51:21;100675.97;;;8.50;75.22
28628;BME280;15815;46.760;19.604;2022-12-29T13:56:34;100704.53;;;8.62;75.79
28628;BME280;15815;46.760;19.604;2022-12-29T13:59:15;100684.78;;;8.52;76.18
28628;BME280;15815;46.760;19.604;2022-12-29T14:01:50;100663.03;;;8.42;76.53
28628;BME280;15815;46.760;19.604;2022-12-29T14:04:24;100679.59;;;8.54;76.43
28628;BME280;15815;46.760;19.604;2022-12-29T14:07:11;100690.94;;;8.64;75.99
28628;BME280;15815;46.760;19.604;2022-12-29T14:09:47;100685.78;;;8.70;76.48
28628;BME280;15815;46.760;19.604;2022-12-29T14:12:30;100697.00;;;8.70;77.27
28628;BME280;15815;46.760;19.604;2022-12-29T14:17:35;100700.59;;;8.71;77.17
28628;BME280;15815;46.760;19.604;2022-12-29T14:20:02;100682.06;;;8.59;76.51
28628;BME280;15815;46.760;19.604;2022-12-29T14:22:28;100700.19;;;8.68;76.78
28628;BME280;15815;46.760;19.604;2022-12-29T14:24:58;100673.59;;;8.52;76.72
28628;BME280;15815;46.760;19.604;2022-12-29T14:29:52;100667.44;;;8.43;77.11
28628;BME280;15815;46.760;19.604;2022-12-29T14:34:53;100700.06;;;8.58;77.79
28628;BME280;15815;46.760;19.604;2022-12-29T14:37:30;100700.56;;;8.67;76.90
28628;BME280;15815;46.760;19.604;2022-12-29T14:40:14;100693.72;;;8.64;77.01
28628;BME280;15815;46.760;19.604;2022-12-29T14:42:41;100702.94;;;8.65;76.55
28628;BME280;15815;46.760;19.604;2022-12-29T14:52:54;100668.09;;;8.32;77.16
28628;BME280;15815;46.760;19.604;2022-12-29T14:55:53;100692.63;;;8.39;77.78
28628;BME280;15815;46.760;19.604;2022-12-29T14:58:47;100691.69;;;8.31;78.56
28628;BME280;15815;46.760;19.604;2022-12-29T15:01:39;100688.03;;;8.27;78.02
28628;BME280;15815;46.760;19.604;2022-12-29T15:04:33;100683.75;;;8.07;79.04